Terminal Aerodrome Forecast
Issued by NWS Jackson, KY

Home | Current Version | Previous Version | Text Only | Print | Product List | Glossary On
Versions: 1 2 3 4 5 6 7 8 9 10 11 12 13 14 15 16 17 18 19
000
FTUS43 KJKL 010140 AAA
TAFLOZ
TAF AMD
KLOZ 010140Z 0102/0124 20008KT P6SM SCT020 OVC035
     FM010400 21010KT P6SM BKN035 WS020/21050KT
     FM011300 22012G22KT P6SM VCTS SCT020CB BKN040
     FM011600 22012G28KT 3SM TSRA BKN020CB
     FM011900 26010G20KT P6SM VCTS SCT020CB BKN040=

USA.gov is the U.S. government's official web portal to all federal, state and local government web resources and services.